createdAt,value
2019-05-13T00:00:46.373Z,93.51
2019-05-13T00:01:46.382Z,93.41
2019-05-13T00:02:46.220Z,93.70
2019-05-13T00:03:46.185Z,93.70
2019-05-13T00:04:46.030Z,93.99
2019-05-13T00:05:45.990Z,94.08
2019-05-13T00:06:53.581Z,93.70
2019-05-13T00:07:45.800Z,93.70
2019-05-13T00:08:45.692Z,93.70
2019-05-13T00:09:45.814Z,93.51
2019-05-13T00:10:45.522Z,94.27
2019-05-13T00:11:45.438Z,93.89
2019-05-13T00:12:45.483Z,94.46
2019-05-13T00:13:45.274Z,93.99
2019-05-13T00:14:45.224Z,94.27
2019-05-13T00:15:45.247Z,94.74
2019-05-13T00:16:45.029Z,94.74
2019-05-13T00:17:44.941Z,94.65
2019-05-13T00:18:45.056Z,94.37
2019-05-13T00:19:44.758Z,94.46
2019-05-13T00:20:44.677Z,94.56
2019-05-13T00:21:44.687Z,95.12
2019-05-13T00:22:45.028Z,94.84
2019-05-13T00:23:44.422Z,95.22
2019-05-13T00:24:44.489Z,95.22
2019-05-13T00:25:44.658Z,95.12
2019-05-13T00:26:44.604Z,95.51
2019-05-13T00:27:44.654Z,95.32
2019-05-13T00:28:44.368Z,95.41
2019-05-13T00:29:44.458Z,95.41
2019-05-13T00:30:44.486Z,95.41
2019-05-13T00:31:43.980Z,95.79
2019-05-13T00:32:44.517Z,96.26
2019-05-13T00:33:44.436Z,96.08
2019-05-13T00:34:44.600Z,96.03
2019-05-13T00:35:44.321Z,95.94
2019-05-13T00:36:44.511Z,96.60
2019-05-13T00:37:44.393Z,96.69
2019-05-13T00:38:44.014Z,96.79
2019-05-13T00:39:44.220Z,96.41
2019-05-13T00:40:44.277Z,97.07
2019-05-13T00:41:44.275Z,97.36
2019-05-13T00:42:44.080Z,97.27
2019-05-13T00:43:44.412Z,97.17
2019-05-13T00:44:44.381Z,97.17
2019-05-13T00:45:44.321Z,97.07
2019-05-13T00:46:44.123Z,96.98
2019-05-13T00:47:43.687Z,97.17
2019-05-13T00:48:43.974Z,96.98
2019-05-13T00:49:43.664Z,96.98
2019-05-13T00:50:44.185Z,97.07
2019-05-13T00:51:44.234Z,97.17
2019-05-13T00:52:44.578Z,97.27
2019-05-13T00:53:44.058Z,97.36
2019-05-13T00:54:44.023Z,97.36
2019-05-13T00:55:41.704Z,97.27
2019-05-13T00:56:43.634Z,96.98
2019-05-13T00:57:43.652Z,97.07
2019-05-13T00:58:43.539Z,97.17
2019-05-13T00:59:41.360Z,96.88
2019-05-13T01:00:44.201Z,97.27
2019-05-13T01:01:41.190Z,97.27
2019-05-13T01:02:41.121Z,96.79
2019-05-13T01:03:41.053Z,97.27
2019-05-13T01:04:40.943Z,97.17
2019-05-13T01:05:40.855Z,96.60
2019-05-13T01:06:43.532Z,97.36
2019-05-13T01:07:40.700Z,97.27
2019-05-13T01:08:40.675Z,96.79
2019-05-13T01:09:40.510Z,96.88
2019-05-13T01:10:40.484Z,97.07
2019-05-13T01:11:40.346Z,97.07
2019-05-13T01:12:40.329Z,96.69
2019-05-13T01:13:40.166Z,96.88
2019-05-13T01:14:40.312Z,97.07
2019-05-13T01:15:40.000Z,97.45
2019-05-13T01:16:40.115Z,97.17
2019-05-13T01:17:39.841Z,97.17
2019-05-13T01:18:39.922Z,97.64
2019-05-13T01:19:39.665Z,97.64
2019-05-13T01:20:39.731Z,97.74
2019-05-13T01:21:39.487Z,98.12
2019-05-13T01:22:39.431Z,97.83
2019-05-13T01:23:39.329Z,97.17
2019-05-13T01:24:39.354Z,97.07
2019-05-13T01:25:39.148Z,97.07
2019-05-13T01:26:39.060Z,97.45
2019-05-13T01:27:39.224Z,97.64
2019-05-13T01:28:38.891Z,97.64
2019-05-13T01:29:38.816Z,97.45
2019-05-13T01:30:38.773Z,97.55
2019-05-13T01:31:38.639Z,97.64
2019-05-13T01:32:38.611Z,97.55
2019-05-13T01:33:38.476Z,98.12
2019-05-13T01:34:38.595Z,97.92
2019-05-13T01:35:38.298Z,97.92
2019-05-13T01:36:38.213Z,98.12
2019-05-13T01:37:42.533Z,98.02
2019-05-13T01:38:38.038Z,98.02
2019-05-13T01:39:37.956Z,98.31
2019-05-13T01:40:38.021Z,98.21
2019-05-13T01:41:37.785Z,98.21
2019-05-13T01:42:37.727Z,98.69
2019-05-13T01:43:37.629Z,98.88
2019-05-13T01:44:37.528Z,98.50
2019-05-13T01:45:37.446Z,99.07
2019-05-13T01:46:37.447Z,98.88
2019-05-13T01:47:37.269Z,99.16
2019-05-13T01:48:37.287Z,99.07
2019-05-13T01:49:37.103Z,99.35
2019-05-13T01:50:37.266Z,99.35
2019-05-13T01:51:36.930Z,99.26
2019-05-13T01:52:36.871Z,98.88
2019-05-13T01:53:36.770Z,98.79
2019-05-13T01:54:36.888Z,98.40
2019-05-13T01:55:36.587Z,98.88
2019-05-13T01:56:36.691Z,98.88
2019-05-13T01:57:36.416Z,98.79
2019-05-13T01:58:36.541Z,98.50
2019-05-13T01:59:36.244Z,98.40
2019-05-13T02:00:36.309Z,99.16
2019-05-13T02:01:36.078Z,98.97
2019-05-13T02:02:36.001Z,98.59
2019-05-13T02:03:35.953Z,98.50
2019-05-13T02:04:35.823Z,98.88
2019-05-13T02:05:35.733Z,98.79
2019-05-13T02:06:35.760Z,99.26
2019-05-13T02:07:35.564Z,99.26
2019-05-13T02:08:35.490Z,99.73
2019-05-13T02:09:35.549Z,99.64
2019-05-13T02:10:35.313Z,99.49
2019-05-13T02:11:35.221Z,99.30
2019-05-13T02:12:35.162Z,99.44
2019-05-13T02:13:35.076Z,99.30
2019-05-13T02:14:35.176Z,98.83
2019-05-13T02:15:34.877Z,99.40
2019-05-13T02:16:35.009Z,99.30
2019-05-13T02:17:34.707Z,99.77
2019-05-13T02:18:34.823Z,99.68
2019-05-13T02:19:34.544Z,99.77
2019-05-13T02:20:34.595Z,99.77
2019-05-13T02:21:34.363Z,99.97
2019-05-13T02:22:34.283Z,99.99
2019-05-13T02:23:34.240Z,99.99
2019-05-13T02:24:34.430Z,99.77
2019-05-13T02:25:34.164Z,99.99
2019-05-13T02:26:34.514Z,99.99
2019-05-13T02:27:34.498Z,99.99
2019-05-13T02:28:33.782Z,99.99
2019-05-13T02:29:34.449Z,99.99
2019-05-13T02:30:34.880Z,99.99
2019-05-13T02:31:45.255Z,99.99
2019-05-13T02:32:33.446Z,99.99
2019-05-13T02:33:34.159Z,99.99
2019-05-13T02:34:33.465Z,99.99
2019-05-13T02:35:33.174Z,99.99
2019-05-13T02:36:33.284Z,99.99
2019-05-13T02:37:34.267Z,99.99
2019-05-13T02:38:35.331Z,99.99
2019-05-13T02:39:33.134Z,99.99
2019-05-13T02:40:32.892Z,99.99
2019-05-13T02:41:34.183Z,99.99
2019-05-13T02:42:32.968Z,99.99
2019-05-13T02:43:33.444Z,99.99
2019-05-13T02:44:33.253Z,99.99
2019-05-13T02:45:33.300Z,99.99
2019-05-13T02:46:33.807Z,99.99
2019-05-13T02:47:33.107Z,99.99
2019-05-13T02:48:33.174Z,99.99
2019-05-13T02:49:32.662Z,99.99
2019-05-13T02:50:33.775Z,99.99
2019-05-13T02:51:32.798Z,99.99
2019-05-13T02:52:33.409Z,99.99
2019-05-13T02:53:33.472Z,99.99
2019-05-13T02:54:34.080Z,99.99
2019-05-13T02:55:32.855Z,99.99
2019-05-13T02:56:33.029Z,99.99
2019-05-13T02:57:32.596Z,99.99
2019-05-13T02:58:33.294Z,99.99
2019-05-13T02:59:33.539Z,99.99
2019-05-13T03:00:32.901Z,99.99
2019-05-13T03:01:33.226Z,99.99
2019-05-13T03:02:32.738Z,99.99
2019-05-13T03:03:32.768Z,99.99
2019-05-13T03:04:32.654Z,99.99
2019-05-13T03:05:32.035Z,99.99
2019-05-13T03:06:33.200Z,99.99
2019-05-13T03:07:33.333Z,99.99
2019-05-13T03:08:41.060Z,99.99
2019-05-13T03:09:32.511Z,99.99
2019-05-13T03:10:32.930Z,99.99
2019-05-13T03:11:32.868Z,99.99
2019-05-13T03:12:32.201Z,99.99
2019-05-13T03:13:32.576Z,99.99
2019-05-13T03:14:32.248Z,99.99
2019-05-13T03:15:32.735Z,99.99
2019-05-13T03:16:32.379Z,99.99
2019-05-13T03:17:32.377Z,99.99
2019-05-13T03:18:33.121Z,99.99
2019-05-13T03:19:32.898Z,99.99
2019-05-13T03:20:33.010Z,99.99
2019-05-13T03:21:32.438Z,99.99
2019-05-13T03:22:31.844Z,99.99
2019-05-13T03:23:32.431Z,99.99
2019-05-13T03:24:32.706Z,99.99
2019-05-13T03:25:28.877Z,99.99
2019-05-13T03:26:32.050Z,99.99
2019-05-13T03:27:28.718Z,99.99
2019-05-13T03:28:28.619Z,99.99
2019-05-13T03:29:28.738Z,99.99
2019-05-13T03:30:28.460Z,99.99
2019-05-13T03:31:28.397Z,99.99
2019-05-13T03:32:35.639Z,99.99
2019-05-13T03:33:28.809Z,99.99
2019-05-13T03:34:28.122Z,99.99
2019-05-13T03:35:28.351Z,99.99
2019-05-13T03:36:27.941Z,99.99
2019-05-13T03:37:27.855Z,99.99
2019-05-13T03:38:27.949Z,99.99
2019-05-13T03:39:27.686Z,99.99
2019-05-13T03:40:27.579Z,99.99
2019-05-13T03:41:27.560Z,99.99
2019-05-13T03:42:27.409Z,99.99
2019-05-13T03:43:27.362Z,99.99
2019-05-13T03:44:27.249Z,99.99
2019-05-13T03:45:27.171Z,99.99
2019-05-13T03:46:27.070Z,99.99
2019-05-13T03:47:27.183Z,99.99
2019-05-13T03:48:26.904Z,99.99
2019-05-13T03:49:27.036Z,99.99
2019-05-13T03:50:30.535Z,99.99
2019-05-13T03:51:26.801Z,99.99
2019-05-13T03:52:26.545Z,99.99
2019-05-13T03:53:26.460Z,99.99
2019-05-13T03:54:26.450Z,99.99
2019-05-13T03:55:26.287Z,99.99
2019-05-13T03:56:26.208Z,99.99
2019-05-13T03:57:26.230Z,99.99
2019-05-13T03:58:26.030Z,99.99
2019-05-13T03:59:25.959Z,99.99
2019-05-13T04:00:26.041Z,99.99
2019-05-13T04:01:25.772Z,99.99
2019-05-13T04:02:25.693Z,99.99
2019-05-13T04:03:25.685Z,99.99
2019-05-13T04:04:25.521Z,99.99
2019-05-13T04:05:25.710Z,99.99
2019-05-13T04:06:25.345Z,99.99
2019-05-13T04:07:25.473Z,99.99
2019-05-13T04:08:25.169Z,99.99
2019-05-13T04:09:31.196Z,99.99
2019-05-13T04:10:25.030Z,99.99
2019-05-13T04:11:25.089Z,99.99
2019-05-13T04:12:28.376Z,99.99
2019-05-13T04:13:24.901Z,99.99
2019-05-13T04:14:24.662Z,99.99
2019-05-13T04:15:24.705Z,99.99
2019-05-13T04:16:24.470Z,99.99
2019-05-13T04:17:24.585Z,99.99
2019-05-13T04:18:24.316Z,99.99
2019-05-13T04:19:24.226Z,99.99
2019-05-13T04:20:24.125Z,99.99
2019-05-13T04:21:24.131Z,99.99
2019-05-13T04:22:23.953Z,99.99
2019-05-13T04:23:23.941Z,99.99
2019-05-13T04:24:23.810Z,99.99
2019-05-13T04:25:23.796Z,99.99
2019-05-13T04:26:24.151Z,99.99
2019-05-13T04:27:23.690Z,99.99
2019-05-13T04:28:23.565Z,99.99
2019-05-13T04:29:23.682Z,99.99
2019-05-13T04:30:23.276Z,99.99
2019-05-13T04:31:23.259Z,99.99
2019-05-13T04:32:23.478Z,99.99
2019-05-13T04:33:23.349Z,99.99
2019-05-13T04:34:23.231Z,99.99
2019-05-13T04:35:23.718Z,99.99
2019-05-13T04:36:23.664Z,99.99
2019-05-13T04:37:22.664Z,99.99
2019-05-13T04:38:23.020Z,99.99
2019-05-13T04:39:40.383Z,99.99
2019-05-13T04:40:23.408Z,99.99
2019-05-13T04:41:23.192Z,99.99
2019-05-13T04:42:23.275Z,99.99
2019-05-13T04:43:23.590Z,99.99
2019-05-13T04:44:24.045Z,99.99
2019-05-13T04:45:23.815Z,99.99
2019-05-13T04:46:23.920Z,99.99
2019-05-13T04:47:22.944Z,99.99
2019-05-13T04:48:22.811Z,99.99
2019-05-13T04:49:23.263Z,99.99
2019-05-13T04:50:22.618Z,99.99
2019-05-13T04:51:22.603Z,99.99
2019-05-13T04:52:22.225Z,99.99
2019-05-13T04:53:22.597Z,99.99
2019-05-13T04:54:22.518Z,99.99
2019-05-13T04:55:22.916Z,99.99
2019-05-13T04:56:22.337Z,99.99
2019-05-13T04:57:22.717Z,99.99
2019-05-13T04:58:23.546Z,99.99
2019-05-13T04:59:22.695Z,99.99
2019-05-13T05:00:23.457Z,99.99
2019-05-13T05:01:23.758Z,99.99
2019-05-13T05:02:22.365Z,99.99
2019-05-13T05:03:22.878Z,99.99
2019-05-13T05:04:28.766Z,99.99
2019-05-13T05:05:22.613Z,99.99
2019-05-13T05:06:22.655Z,99.99
2019-05-13T05:07:22.240Z,99.99
2019-05-13T05:08:22.450Z,99.99
2019-05-13T05:09:22.461Z,99.99
2019-05-13T05:10:30.329Z,99.99
2019-05-13T05:11:22.310Z,99.99
2019-05-13T05:12:19.700Z,99.99
2019-05-13T05:13:22.067Z,99.99
2019-05-13T05:14:22.273Z,99.99
2019-05-13T05:15:19.479Z,99.99
2019-05-13T05:16:21.800Z,99.99
2019-05-13T05:17:22.305Z,99.99
2019-05-13T05:18:21.972Z,99.99
2019-05-13T05:19:19.234Z,99.99
2019-05-13T05:20:19.065Z,99.99
2019-05-13T05:21:18.966Z,99.99
2019-05-13T05:22:18.947Z,99.99
2019-05-13T05:23:21.270Z,99.93
2019-05-13T05:24:18.706Z,99.64
2019-05-13T05:25:18.688Z,98.97
2019-05-13T05:26:18.537Z,99.93
2019-05-13T05:27:18.459Z,99.99
2019-05-13T05:28:21.619Z,99.26
2019-05-13T05:29:18.287Z,99.45
2019-05-13T05:30:18.237Z,99.26
2019-05-13T05:31:18.193Z,98.50
2019-05-13T05:32:18.042Z,98.65
2019-05-13T05:33:17.965Z,99.22
2019-05-13T05:34:17.902Z,98.17
2019-05-13T05:35:17.792Z,97.88
2019-05-13T05:36:17.743Z,98.17
2019-05-13T05:37:17.628Z,97.55
2019-05-13T05:38:17.564Z,97.31
2019-05-13T05:39:17.474Z,97.46
2019-05-13T05:40:30.463Z,96.98
2019-05-13T05:41:17.314Z,96.89
2019-05-13T05:42:17.214Z,96.31
2019-05-13T05:43:17.148Z,96.79
2019-05-13T05:44:17.047Z,96.12
2019-05-13T05:45:16.973Z,96.41
2019-05-13T05:46:17.045Z,96.12
2019-05-13T05:47:16.803Z,96.12
2019-05-13T05:48:16.722Z,96.12
2019-05-13T05:49:16.827Z,96.22
2019-05-13T05:50:16.554Z,96.70
2019-05-13T05:51:16.484Z,96.79
2019-05-13T05:52:16.438Z,96.12
2019-05-13T05:53:16.307Z,96.03
2019-05-13T05:54:16.233Z,96.75
2019-05-13T05:55:16.258Z,95.94
2019-05-13T05:56:16.074Z,95.89
2019-05-13T05:57:15.979Z,95.60
2019-05-13T05:58:16.068Z,95.79
2019-05-13T05:59:15.815Z,95.79
2019-05-13T06:00:15.891Z,95.70
2019-05-13T06:01:15.671Z,95.98
2019-05-13T06:02:15.687Z,95.03
2019-05-13T06:03:15.488Z,94.84
2019-05-13T06:04:15.500Z,94.08
2019-05-13T06:05:15.327Z,94.84
2019-05-13T06:06:15.351Z,95.32
2019-05-13T06:07:15.163Z,95.41
2019-05-13T06:08:17.717Z,94.37
2019-05-13T06:09:15.006Z,94.84
2019-05-13T06:10:15.126Z,94.13
2019-05-13T06:11:14.852Z,94.89
2019-05-13T06:12:14.935Z,95.08
2019-05-13T06:13:14.677Z,95.08
2019-05-13T06:14:14.698Z,94.89
2019-05-13T06:15:14.505Z,95.84
2019-05-13T06:16:14.549Z,95.17
2019-05-13T06:17:14.353Z,94.79
2019-05-13T06:18:14.388Z,94.98
2019-05-13T06:19:17.719Z,94.89
2019-05-13T06:20:14.315Z,94.32
2019-05-13T06:21:14.034Z,94.98
2019-05-13T06:22:13.995Z,94.70
2019-05-13T06:23:13.860Z,94.70
2019-05-13T06:24:13.777Z,95.12
2019-05-13T06:25:14.802Z,94.08
2019-05-13T06:26:13.643Z,93.89
2019-05-13T06:27:13.536Z,93.51
2019-05-13T06:28:13.608Z,93.03
2019-05-13T06:29:13.370Z,94.17
2019-05-13T06:30:13.410Z,93.55
2019-05-13T06:31:13.218Z,92.69
2019-05-13T06:32:22.060Z,91.55
2019-05-13T06:33:13.040Z,91.88
2019-05-13T06:34:12.960Z,91.03
2019-05-13T06:35:13.041Z,90.64
2019-05-13T06:36:12.813Z,91.03
2019-05-13T06:37:12.719Z,91.60
2019-05-13T06:38:12.854Z,90.17
2019-05-13T06:39:12.557Z,90.08
2019-05-13T06:40:12.664Z,89.55
2019-05-13T06:41:14.776Z,90.41
2019-05-13T06:42:12.471Z,90.31
2019-05-13T06:43:12.233Z,90.41
2019-05-13T06:44:12.323Z,90.12
2019-05-13T06:45:12.568Z,90.41
2019-05-13T06:46:12.402Z,90.22
2019-05-13T06:47:11.930Z,90.60
2019-05-13T06:48:12.106Z,90.70
2019-05-13T06:49:12.282Z,90.64
2019-05-13T06:50:12.054Z,90.55
2019-05-13T06:51:11.736Z,90.64
2019-05-13T06:52:11.993Z,88.22
2019-05-13T06:53:12.683Z,89.26
2019-05-13T06:54:11.495Z,89.69
2019-05-13T06:55:11.711Z,89.60
2019-05-13T06:56:12.146Z,89.22
2019-05-13T06:57:13.492Z,87.74
2019-05-13T06:58:11.541Z,88.41
2019-05-13T06:59:11.853Z,89.03
2019-05-13T07:00:12.236Z,88.26
2019-05-13T07:01:11.626Z,86.83
2019-05-13T07:02:12.466Z,87.60
2019-05-13T07:03:12.664Z,88.36
2019-05-13T07:04:11.648Z,87.35
2019-05-13T07:05:12.043Z,87.31
2019-05-13T07:06:12.306Z,87.31
2019-05-13T07:07:16.661Z,87.60
2019-05-13T07:08:12.002Z,86.74
2019-05-13T07:09:11.947Z,86.83
2019-05-13T07:10:12.491Z,87.88
2019-05-13T07:11:18.660Z,87.35
2019-05-13T07:12:11.341Z,86.98
2019-05-13T07:13:11.462Z,86.11
2019-05-13T07:14:12.465Z,85.49
2019-05-13T07:15:11.577Z,85.11
2019-05-13T07:16:11.781Z,83.87
2019-05-13T07:17:12.122Z,84.16
2019-05-13T07:18:11.688Z,85.05
2019-05-13T07:19:11.546Z,83.87
2019-05-13T07:20:11.612Z,83.14
2019-05-13T07:21:09.189Z,83.20
2019-05-13T07:22:11.487Z,84.10
2019-05-13T07:23:09.028Z,83.72
2019-05-13T07:24:09.065Z,83.53
2019-05-13T07:25:11.266Z,83.53
2019-05-13T07:26:08.792Z,81.90
2019-05-13T07:27:08.906Z,82.48
2019-05-13T07:28:08.631Z,82.29
2019-05-13T07:29:08.970Z,82.67
2019-05-13T07:30:08.492Z,83.47
2019-05-13T07:31:08.391Z,83.00
2019-05-13T07:32:08.346Z,81.79
2019-05-13T07:33:08.301Z,79.65
2019-05-13T07:34:08.154Z,80.61
2019-05-13T07:35:08.109Z,79.71
2019-05-13T07:36:07.996Z,80.43
2019-05-13T07:37:07.950Z,81.90
2019-05-13T07:38:07.842Z,80.38
2019-05-13T07:39:07.761Z,78.85
2019-05-13T07:40:07.735Z,79.04
2019-05-13T07:41:07.599Z,79.38
2019-05-13T07:42:07.544Z,80.62
2019-05-13T07:43:07.544Z,82.15
2019-05-13T07:44:07.363Z,81.29
2019-05-13T07:45:07.356Z,80.47
2019-05-13T07:46:07.210Z,80.28
2019-05-13T07:47:07.222Z,79.80
2019-05-13T07:48:19.464Z,79.94
2019-05-13T07:49:06.970Z,79.75
2019-05-13T07:50:06.980Z,77.08
2019-05-13T07:51:06.813Z,76.42
2019-05-13T07:52:06.753Z,77.80
2019-05-13T07:53:06.798Z,78.22
2019-05-13T07:54:06.584Z,77.26
2019-05-13T07:55:06.602Z,77.17
2019-05-13T07:56:06.425Z,76.73
2019-05-13T07:57:06.446Z,76.45
2019-05-13T07:58:06.277Z,75.10
2019-05-13T07:59:07.205Z,75.68
2019-05-13T08:00:06.118Z,75.10
2019-05-13T08:01:06.246Z,76.00
2019-05-13T08:02:05.987Z,74.57
2019-05-13T08:03:06.042Z,73.39
2019-05-13T08:04:05.820Z,74.40
2019-05-13T08:05:05.850Z,74.44
2019-05-13T08:06:05.659Z,74.40
2019-05-13T08:07:05.657Z,75.30
2019-05-13T08:08:05.510Z,75.01
2019-05-13T08:09:05.471Z,76.86
2019-05-13T08:10:05.354Z,76.57
2019-05-13T08:11:05.481Z,74.66
2019-05-13T08:12:10.449Z,73.33
2019-05-13T08:13:05.128Z,72.72
2019-05-13T08:14:05.093Z,74.44
2019-05-13T08:15:04.961Z,73.29
2019-05-13T08:16:04.917Z,73.33
2019-05-13T08:17:04.910Z,71.22
2019-05-13T08:18:04.752Z,70.94
2019-05-13T08:19:04.660Z,71.70
2019-05-13T08:20:04.718Z,71.73
2019-05-13T08:21:04.509Z,72.16
2019-05-13T08:22:04.529Z,72.06
2019-05-13T08:23:04.378Z,72.16
2019-05-13T08:24:04.334Z,72.02
2019-05-13T08:25:04.198Z,74.70
2019-05-13T08:26:04.146Z,73.50
2019-05-13T08:27:04.048Z,72.54
2019-05-13T08:28:04.200Z,70.91
2019-05-13T08:29:05.973Z,71.42
2019-05-13T08:30:03.968Z,72.58
2019-05-13T08:31:03.749Z,69.48
2019-05-13T08:32:03.775Z,70.05
2019-05-13T08:33:03.612Z,70.37
2019-05-13T08:34:03.610Z,68.71
2019-05-13T08:35:09.051Z,68.80
2019-05-13T08:36:03.391Z,68.87
2019-05-13T08:37:03.472Z,69.44
2019-05-13T08:38:03.331Z,70.01
2019-05-13T08:39:03.150Z,69.73
2019-05-13T08:40:03.077Z,70.11
2019-05-13T08:41:03.016Z,69.95
2019-05-13T08:42:15.198Z,70.12
2019-05-13T08:43:02.872Z,67.82
2019-05-13T08:44:02.848Z,65.78
2019-05-13T08:45:02.705Z,65.11
2019-05-13T08:46:02.639Z,66.48
2019-05-13T08:47:03.296Z,68.11
2019-05-13T08:48:03.503Z,65.17
2019-05-13T08:49:03.833Z,64.79
2019-05-13T08:50:04.458Z,66.45
2019-05-13T08:51:03.071Z,66.16
2019-05-13T08:52:02.323Z,65.20
2019-05-13T08:53:02.113Z,63.57
2019-05-13T08:54:02.549Z,63.48
2019-05-13T08:55:02.178Z,65.33
2019-05-13T08:56:02.123Z,65.42
2019-05-13T08:57:02.782Z,65.91
2019-05-13T08:58:02.275Z,66.99
2019-05-13T08:59:01.664Z,64.05
2019-05-13T09:00:05.219Z,65.97
2019-05-13T09:01:02.446Z,66.38
2019-05-13T09:02:02.908Z,65.05
2019-05-13T09:03:02.889Z,64.28
2019-05-13T09:04:02.353Z,63.76
2019-05-13T09:05:02.341Z,65.30
2019-05-13T09:06:02.773Z,66.09
2019-05-13T09:07:02.212Z,67.47
2019-05-13T09:08:01.384Z,65.97
2019-05-13T09:09:02.388Z,62.36
2019-05-13T09:10:01.766Z,61.18
2019-05-13T09:11:01.575Z,60.86
2019-05-13T09:12:02.389Z,62.59
2019-05-13T09:13:01.849Z,62.65
2019-05-13T09:14:02.268Z,65.23
2019-05-13T09:15:03.173Z,65.52
2019-05-13T09:16:02.412Z,66.32
2019-05-13T09:17:01.886Z,64.40
2019-05-13T09:18:02.370Z,64.37
2019-05-13T09:19:03.662Z,65.23
2019-05-13T09:20:02.552Z,66.19
2019-05-13T09:21:02.555Z,65.52
2019-05-13T09:22:03.099Z,65.65
2019-05-13T09:23:01.923Z,66.54
2019-05-13T09:24:01.963Z,64.82
2019-05-13T09:25:02.064Z,64.28
2019-05-13T09:26:02.325Z,63.03
2019-05-13T09:27:01.719Z,63.22
2019-05-13T09:28:02.422Z,63.80
2019-05-13T09:29:01.444Z,63.16
2019-05-13T09:29:59.342Z,63.76
2019-05-13T09:31:01.824Z,62.07
2019-05-13T09:31:59.191Z,60.57
2019-05-13T09:32:59.121Z,62.55
2019-05-13T09:34:01.351Z,62.36
2019-05-13T09:34:58.969Z,63.16
2019-05-13T09:35:58.895Z,62.55
2019-05-13T09:36:58.829Z,63.03
2019-05-13T09:37:58.781Z,65.75
2019-05-13T09:38:58.688Z,62.20
2019-05-13T09:39:58.601Z,61.40
2019-05-13T09:40:58.529Z,62.17
2019-05-13T09:41:58.469Z,61.98
2019-05-13T09:42:58.389Z,61.88
2019-05-13T09:43:58.329Z,61.88
2019-05-13T09:44:58.236Z,60.96
2019-05-13T09:45:58.174Z,59.80
2019-05-13T09:46:58.091Z,57.31
2019-05-13T09:47:58.034Z,57.09
2019-05-13T09:49:11.840Z,57.89
2019-05-13T09:49:57.875Z,57.79
2019-05-13T09:50:57.807Z,56.32
2019-05-13T09:51:57.734Z,56.97
2019-05-13T09:52:57.664Z,57.13
2019-05-13T09:53:57.611Z,57.90
2019-05-13T09:54:57.514Z,56.94
2019-05-13T09:55:57.445Z,56.59
2019-05-13T09:56:57.369Z,56.39
2019-05-13T09:57:57.298Z,56.68
2019-05-13T09:58:57.237Z,56.99
2019-05-13T09:59:57.144Z,56.30
2019-05-13T10:00:57.078Z,55.91
2019-05-13T10:01:56.998Z,56.56
2019-05-13T10:02:56.928Z,56.37
2019-05-13T10:03:58.176Z,57.92
2019-05-13T10:04:56.785Z,57.64
2019-05-13T10:05:56.743Z,55.56
2019-05-13T10:06:56.633Z,54.22
2019-05-13T10:07:56.567Z,54.60
2019-05-13T10:08:56.509Z,55.36
2019-05-13T10:09:56.418Z,56.04
2019-05-13T10:10:56.336Z,58.65
2019-05-13T10:11:57.270Z,56.04
2019-05-13T10:13:08.002Z,58.17
2019-05-13T10:13:56.128Z,57.89
2019-05-13T10:14:56.050Z,56.93
2019-05-13T10:15:55.964Z,57.31
2019-05-13T10:16:55.899Z,56.76
2019-05-13T10:17:55.830Z,57.34
2019-05-13T10:18:55.770Z,57.24
2019-05-13T10:19:55.673Z,57.15
2019-05-13T10:20:58.728Z,57.98
2019-05-13T10:21:55.539Z,55.87
2019-05-13T10:22:55.471Z,57.31
2019-05-13T10:23:58.653Z,56.57
2019-05-13T10:24:55.311Z,54.44
2019-05-13T10:25:55.240Z,55.71
2019-05-13T10:26:55.177Z,57.28
2019-05-13T10:27:55.087Z,57.28
2019-05-13T10:28:55.059Z,57.01
2019-05-13T10:29:54.954Z,55.45
2019-05-13T10:30:54.965Z,55.96
2019-05-13T10:31:54.804Z,57.81
2019-05-13T10:32:59.136Z,57.62
2019-05-13T10:33:54.655Z,54.55
2019-05-13T10:34:54.607Z,53.72
2019-05-13T10:35:54.516Z,55.83
2019-05-13T10:36:54.457Z,56.22
2019-05-13T10:37:54.373Z,56.02
2019-05-13T10:38:54.305Z,56.48
2019-05-13T10:39:54.249Z,54.56
2019-05-13T10:40:54.191Z,55.74
2019-05-13T10:41:54.094Z,54.17
2019-05-13T10:42:54.017Z,54.15
2019-05-13T10:43:53.943Z,55.21
2019-05-13T10:44:53.908Z,55.68
2019-05-13T10:45:53.802Z,54.17
2019-05-13T10:46:53.737Z,54.30
2019-05-13T10:47:53.664Z,54.58
2019-05-13T10:48:53.595Z,52.86
2019-05-13T10:49:53.531Z,52.83
2019-05-13T10:50:53.450Z,55.35
2019-05-13T10:51:53.383Z,54.11
2019-05-13T10:52:53.302Z,54.27
2019-05-13T10:53:58.998Z,56.02
2019-05-13T10:54:53.182Z,54.21
2019-05-13T10:55:53.083Z,55.26
2019-05-13T10:56:59.078Z,55.10
2019-05-13T10:57:53.016Z,53.75
2019-05-13T10:58:53.393Z,52.57
2019-05-13T10:59:52.962Z,54.01
2019-05-13T11:00:52.825Z,54.23
2019-05-13T11:01:52.661Z,54.83
2019-05-13T11:02:52.585Z,56.49
2019-05-13T11:03:52.669Z,53.61
2019-05-13T11:04:52.716Z,51.62
2019-05-13T11:05:52.872Z,52.26
2019-05-13T11:06:52.749Z,51.35
2019-05-13T11:07:52.230Z,50.58
2019-05-13T11:08:53.031Z,51.25
2019-05-13T11:09:52.923Z,50.53
2019-05-13T11:10:53.091Z,52.55
2019-05-13T11:11:52.871Z,52.86
2019-05-13T11:12:52.156Z,49.67
2019-05-13T11:13:58.322Z,51.10
2019-05-13T11:14:55.160Z,50.53
2019-05-13T11:15:57.367Z,50.63
2019-05-13T11:16:52.462Z,49.57
2019-05-13T11:17:51.968Z,49.10
2019-05-13T11:18:52.025Z,51.10
2019-05-13T11:19:51.610Z,50.27
2019-05-13T11:20:51.305Z,49.05
2019-05-13T11:21:51.390Z,50.39
2019-05-13T11:22:52.197Z,49.52
2019-05-13T11:23:51.855Z,52.02
2019-05-13T11:24:51.872Z,50.87
2019-05-13T11:25:52.275Z,51.45
2019-05-13T11:26:53.090Z,51.42
2019-05-13T11:27:52.396Z,50.87
2019-05-13T11:28:52.160Z,52.81
2019-05-13T11:29:52.320Z,50.80
2019-05-13T11:30:52.093Z,49.24
2019-05-13T11:31:52.432Z,48.83
2019-05-13T11:32:51.611Z,48.74
2019-05-13T11:33:51.982Z,49.69
2019-05-13T11:34:52.971Z,49.05
2019-05-13T11:35:52.360Z,49.17
2019-05-13T11:36:53.189Z,49.26
2019-05-13T11:37:52.223Z,48.21
2019-05-13T11:38:53.091Z,48.38
2019-05-13T11:39:51.685Z,48.49
2019-05-13T11:40:52.310Z,50.42
2019-05-13T11:41:49.813Z,49.24
2019-05-13T11:42:52.171Z,49.36
2019-05-13T11:44:11.046Z,48.18
2019-05-13T11:44:52.735Z,48.28
2019-05-13T11:45:50.897Z,47.75
2019-05-13T11:46:52.411Z,49.41
2019-05-13T11:47:51.966Z,48.54
2019-05-13T11:48:51.641Z,48.07
2019-05-13T11:49:51.349Z,48.35
2019-05-13T11:50:51.430Z,48.74
2019-05-13T11:51:51.741Z,49.24
2019-05-13T11:52:52.159Z,47.20
2019-05-13T11:53:48.991Z,47.80
2019-05-13T11:54:48.904Z,48.30
2019-05-13T11:55:52.027Z,46.86
2019-05-13T11:56:52.187Z,48.02
2019-05-13T11:57:48.672Z,48.49
2019-05-13T11:58:48.626Z,45.52
2019-05-13T11:59:48.599Z,46.38
2019-05-13T12:00:48.463Z,45.21
2019-05-13T12:01:48.386Z,45.59
2019-05-13T12:02:52.016Z,45.04
2019-05-13T12:03:48.257Z,44.65
2019-05-13T12:04:48.194Z,45.11
2019-05-13T12:05:48.106Z,46.45
2019-05-13T12:06:50.238Z,46.09
2019-05-13T12:07:47.963Z,44.54
2019-05-13T12:08:52.046Z,44.24
2019-05-13T12:09:47.832Z,46.09
2019-05-13T12:10:47.754Z,45.11
2019-05-13T12:11:47.679Z,43.74
2019-05-13T12:12:47.613Z,44.61
2019-05-13T12:13:47.547Z,44.73
2019-05-13T12:15:49.824Z,46.19
2019-05-13T12:16:47.410Z,46.86
2019-05-13T12:17:47.274Z,48.33
2019-05-13T12:18:47.219Z,45.54
2019-05-13T12:19:47.108Z,44.96
2019-05-13T12:20:47.054Z,44.75
2019-05-13T12:21:47.116Z,44.27
2019-05-13T12:22:46.892Z,44.27
2019-05-13T12:23:46.821Z,44.84
2019-05-13T12:24:46.847Z,43.57
2019-05-13T12:25:46.704Z,43.38
2019-05-13T12:26:55.669Z,44.82
2019-05-13T12:27:46.578Z,43.88
2019-05-13T12:28:46.569Z,44.65
2019-05-13T12:29:46.402Z,44.75
2019-05-13T12:30:46.421Z,45.14
2019-05-13T12:31:46.264Z,43.00
2019-05-13T12:32:46.306Z,43.57
2019-05-13T12:33:46.115Z,42.60
2019-05-13T12:34:46.224Z,43.46
2019-05-13T12:35:46.043Z,44.34
2019-05-13T12:36:45.897Z,44.34
2019-05-13T12:37:45.831Z,44.56
2019-05-13T12:38:45.822Z,45.64
2019-05-13T12:39:45.683Z,46.41
2019-05-13T12:40:45.626Z,47.97
2019-05-13T12:41:46.559Z,45.66
2019-05-13T12:42:47.263Z,44.51
2019-05-13T12:43:45.453Z,42.87
2019-05-13T12:45:00.538Z,41.82
2019-05-13T12:45:45.287Z,40.76
2019-05-13T12:46:50.156Z,40.08
2019-05-13T12:47:45.195Z,41.05
2019-05-13T12:48:45.044Z,41.14
2019-05-13T12:49:45.007Z,41.22
2019-05-13T12:50:44.911Z,41.31
2019-05-13T12:51:44.835Z,41.31
2019-05-13T12:52:44.759Z,41.29